sensor_id;sensor_type;location;lat;lon;timestamp;temperature;humidity
63017;DHT22;50274;45.640;11.756;2023-04-01T00:02:01;10.80;77.20
63017;DHT22;50274;45.640;11.756;2023-04-01T00:04:29;10.70;77.20
63017;DHT22;50274;45.640;11.756;2023-04-01T00:06:57;10.60;77.20
63017;DHT22;50274;45.640;11.756;2023-04-01T00:09:26;10.60;77.40
63017;DHT22;50274;45.640;11.756;2023-04-01T00:11:52;10.60;77.40
63017;DHT22;50274;45.640;11.756;2023-04-01T00:14:22;10.60;77.40
63017;DHT22;50274;45.640;11.756;2023-04-01T00:16:50;10.50;77.40
63017;DHT22;50274;45.640;11.756;2023-04-01T00:19:23;10.50;77.40
63017;DHT22;50274;45.640;11.756;2023-04-01T00:21:51;10.50;77.40
63017;DHT22;50274;45.640;11.756;2023-04-01T00:24:21;10.50;77.30
63017;DHT22;50274;45.640;11.756;2023-04-01T00:26:49;10.50;77.30
63017;DHT22;50274;45.640;11.756;2023-04-01T00:29:18;10.40;77.30
63017;DHT22;50274;45.640;11.756;2023-04-01T00:31:49;10.40;77.30
63017;DHT22;50274;45.640;11.756;2023-04-01T00:34:17;10.40;77.40
63017;DHT22;50274;45.640;11.756;2023-04-01T00:36:46;10.40;77.30
63017;DHT22;50274;45.640;11.756;2023-04-01T00:39:14;10.40;77.30
63017;DHT22;50274;45.640;11.756;2023-04-01T00:41:43;10.30;77.30
63017;DHT22;50274;45.640;11.756;2023-04-01T00:44:16;10.30;77.30
63017;DHT22;50274;45.640;11.756;2023-04-01T00:46:43;10.30;77.10
63017;DHT22;50274;45.640;11.756;2023-04-01T00:49:12;10.20;77.00
63017;DHT22;50274;45.640;11.756;2023-04-01T00:51:42;10.20;77.10
63017;DHT22;50274;45.640;11.756;2023-04-01T00:54:11;10.20;77.00
63017;DHT22;50274;45.640;11.756;2023-04-01T00:56:44;10.10;77.00
63017;DHT22;50274;45.640;11.756;2023-04-01T00:59:27;10.00;77.10
63017;DHT22;50274;45.640;11.756;2023-04-01T01:01:57;10.00;77.20
63017;DHT22;50274;45.640;11.756;2023-04-01T01:04:28;10.00;77.10
63017;DHT22;50274;45.640;11.756;2023-04-01T01:12:58;9.90;77.10
63017;DHT22;50274;45.640;11.756;2023-04-01T01:15:35;9.80;77.10
63017;DHT22;50274;45.640;11.756;2023-04-01T01:20:56;9.80;77.10
63017;DHT22;50274;45.640;11.756;2023-04-01T01:30:08;9.80;77.00
63017;DHT22;50274;45.640;11.756;2023-04-01T01:35:52;9.80;77.00
63017;DHT22;50274;45.640;11.756;2023-04-01T01:38:24;9.80;76.90
63017;DHT22;50274;45.640;11.756;2023-04-01T01:40:56;9.70;76.90
63017;DHT22;50274;45.640;11.756;2023-04-01T01:43:30;9.80;76.80
63017;DHT22;50274;45.640;11.756;2023-04-01T01:46:11;9.80;76.80
63017;DHT22;50274;45.640;11.756;2023-04-01T01:48:41;9.70;76.60
63017;DHT22;50274;45.640;11.756;2023-04-01T01:51:08;9.80;76.50
63017;DHT22;50274;45.640;11.756;2023-04-01T01:53:37;9.70;76.40
63017;DHT22;50274;45.640;11.756;2023-04-01T01:56:03;9.70;76.40
63017;DHT22;50274;45.640;11.756;2023-04-01T01:58:38;9.70;76.30
63017;DHT22;50274;45.640;11.756;2023-04-01T02:01:13;9.70;76.30
63017;DHT22;50274;45.640;11.756;2023-04-01T02:03:45;9.60;76.30
63017;DHT22;50274;45.640;11.756;2023-04-01T02:06:18;9.60;76.40
63017;DHT22;50274;45.640;11.756;2023-04-01T02:09:02;9.60;76.40
63017;DHT22;50274;45.640;11.756;2023-04-01T02:11:34;9.60;76.40
63017;DHT22;50274;45.640;11.756;2023-04-01T02:14:15;9.60;76.40
63017;DHT22;50274;45.640;11.756;2023-04-01T02:16:51;9.50;76.30
63017;DHT22;50274;45.640;11.756;2023-04-01T02:19:25;9.40;76.40
63017;DHT22;50274;45.640;11.756;2023-04-01T02:21:57;9.40;76.40
63017;DHT22;50274;45.640;11.756;2023-04-01T02:24:28;9.40;76.50
63017;DHT22;50274;45.640;11.756;2023-04-01T02:26:58;9.40;76.50
63017;DHT22;50274;45.640;11.756;2023-04-01T02:29:26;9.40;76.40
63017;DHT22;50274;45.640;11.756;2023-04-01T02:31:55;9.40;76.50
63017;DHT22;50274;45.640;11.756;2023-04-01T02:34:22;9.30;76.50
63017;DHT22;50274;45.640;11.756;2023-04-01T02:36:52;9.30;76.50
63017;DHT22;50274;45.640;11.756;2023-04-01T02:39:22;9.30;76.50
63017;DHT22;50274;45.640;11.756;2023-04-01T02:41:48;9.30;76.40
63017;DHT22;50274;45.640;11.756;2023-04-01T02:44:15;9.30;76.40
63017;DHT22;50274;45.640;11.756;2023-04-01T02:46:47;9.30;76.40
63017;DHT22;50274;45.640;11.756;2023-04-01T02:49:15;9.30;76.40
63017;DHT22;50274;45.640;11.756;2023-04-01T02:51:49;9.20;76.40
63017;DHT22;50274;45.640;11.756;2023-04-01T02:54:20;9.20;76.40
63017;DHT22;50274;45.640;11.756;2023-04-01T02:56:49;9.20;76.40
63017;DHT22;50274;45.640;11.756;2023-04-01T02:59:17;9.20;76.30
63017;DHT22;50274;45.640;11.756;2023-04-01T03:01:45;9.20;76.30
63017;DHT22;50274;45.640;11.756;2023-04-01T03:04:13;9.20;76.20
63017;DHT22;50274;45.640;11.756;2023-04-01T03:06:42;9.20;76.20
63017;DHT22;50274;45.640;11.756;2023-04-01T03:09:12;9.10;76.20
63017;DHT22;50274;45.640;11.756;2023-04-01T03:11:43;9.10;76.30
63017;DHT22;50274;45.640;11.756;2023-04-01T03:14:11;9.10;76.30
63017;DHT22;50274;45.640;11.756;2023-04-01T03:16:39;9.10;76.40
63017;DHT22;50274;45.640;11.756;2023-04-01T03:19:09;9.00;76.40
63017;DHT22;50274;45.640;11.756;2023-04-01T03:21:39;9.00;76.40
63017;DHT22;50274;45.640;11.756;2023-04-01T03:24:06;9.00;76.30
63017;DHT22;50274;45.640;11.756;2023-04-01T03:26:36;9.00;76.30
63017;DHT22;50274;45.640;11.756;2023-04-01T03:29:02;9.00;76.20
63017;DHT22;50274;45.640;11.756;2023-04-01T03:31:28;9.00;76.20
63017;DHT22;50274;45.640;11.756;2023-04-01T03:33:56;9.00;76.20
63017;DHT22;50274;45.640;11.756;2023-04-01T03:36:24;9.00;76.10
63017;DHT22;50274;45.640;11.756;2023-04-01T03:38:52;9.00;76.10
63017;DHT22;50274;45.640;11.756;2023-04-01T03:41:25;8.90;76.00
63017;DHT22;50274;45.640;11.756;2023-04-01T03:43:58;9.00;76.00
63017;DHT22;50274;45.640;11.756;2023-04-01T03:46:29;8.90;75.90
63017;DHT22;50274;45.640;11.756;2023-04-01T03:49:00;8.90;75.90
63017;DHT22;50274;45.640;11.756;2023-04-01T03:51:30;8.90;75.80
63017;DHT22;50274;45.640;11.756;2023-04-01T03:54:01;8.80;75.70
63017;DHT22;50274;45.640;11.756;2023-04-01T03:56:29;8.70;75.80
63017;DHT22;50274;45.640;11.756;2023-04-01T03:58:57;8.70;75.80
63017;DHT22;50274;45.640;11.756;2023-04-01T04:01:23;8.70;75.80
63017;DHT22;50274;45.640;11.756;2023-04-01T04:03:53;8.70;75.80
63017;DHT22;50274;45.640;11.756;2023-04-01T04:06:23;8.70;75.70
63017;DHT22;50274;45.640;11.756;2023-04-01T04:08:49;8.60;75.60
63017;DHT22;50274;45.640;11.756;2023-04-01T04:11:19;8.50;75.70
63017;DHT22;50274;45.640;11.756;2023-04-01T04:13:50;8.50;75.70
63017;DHT22;50274;45.640;11.756;2023-04-01T04:16:22;8.50;75.70
63017;DHT22;50274;45.640;11.756;2023-04-01T04:18:50;8.50;75.70
63017;DHT22;50274;45.640;11.756;2023-04-01T04:21:16;8.50;75.70
63017;DHT22;50274;45.640;11.756;2023-04-01T04:23:43;8.40;75.80
63017;DHT22;50274;45.640;11.756;2023-04-01T04:26:13;8.40;75.90
63017;DHT22;50274;45.640;11.756;2023-04-01T04:28:41;8.40;76.00
63017;DHT22;50274;45.640;11.756;2023-04-01T04:31:11;8.40;76.10
63017;DHT22;50274;45.640;11.756;2023-04-01T04:33:40;8.40;76.20
63017;DHT22;50274;45.640;11.756;2023-04-01T04:36:08;8.40;76.20
63017;DHT22;50274;45.640;11.756;2023-04-01T04:38:36;8.40;76.30
63017;DHT22;50274;45.640;11.756;2023-04-01T04:41:09;8.40;76.20
63017;DHT22;50274;45.640;11.756;2023-04-01T04:43:40;8.40;76.20
63017;DHT22;50274;45.640;11.756;2023-04-01T04:46:12;8.30;76.20
63017;DHT22;50274;45.640;11.756;2023-04-01T04:48:41;8.30;76.20
63017;DHT22;50274;45.640;11.756;2023-04-01T04:51:14;8.30;76.20
63017;DHT22;50274;45.640;11.756;2023-04-01T04:53:41;8.30;76.20
63017;DHT22;50274;45.640;11.756;2023-04-01T04:56:11;8.30;76.10
63017;DHT22;50274;45.640;11.756;2023-04-01T04:58:40;8.30;76.00
63017;DHT22;50274;45.640;11.756;2023-04-01T05:01:12;8.30;75.90
63017;DHT22;50274;45.640;11.756;2023-04-01T05:03:40;8.30;75.80
63017;DHT22;50274;45.640;11.756;2023-04-01T05:06:08;8.30;75.80
63017;DHT22;50274;45.640;11.756;2023-04-01T05:08:39;8.30;75.70
63017;DHT22;50274;45.640;11.756;2023-04-01T05:11:12;8.30;75.70
63017;DHT22;50274;45.640;11.756;2023-04-01T05:13:42;8.20;75.70
63017;DHT22;50274;45.640;11.756;2023-04-01T05:16:15;8.30;75.70
63017;DHT22;50274;45.640;11.756;2023-04-01T05:18:41;8.20;75.70
63017;DHT22;50274;45.640;11.756;2023-04-01T05:21:11;8.30;75.60
63017;DHT22;50274;45.640;11.756;2023-04-01T05:23:37;8.30;75.60
63017;DHT22;50274;45.640;11.756;2023-04-01T05:26:08;8.30;75.60
63017;DHT22;50274;45.640;11.756;2023-04-01T05:28:34;8.30;75.50
63017;DHT22;50274;45.640;11.756;2023-04-01T05:31:03;8.30;75.50
63017;DHT22;50274;45.640;11.756;2023-04-01T05:33:32;8.30;75.40
63017;DHT22;50274;45.640;11.756;2023-04-01T05:36:11;8.30;75.20
63017;DHT22;50274;45.640;11.756;2023-04-01T05:38:42;8.30;75.30
63017;DHT22;50274;45.640;11.756;2023-04-01T05:41:15;8.30;75.40
63017;DHT22;50274;45.640;11.756;2023-04-01T05:43:48;8.30;75.50
63017;DHT22;50274;45.640;11.756;2023-04-01T05:46:20;8.30;75.50
63017;DHT22;50274;45.640;11.756;2023-04-01T05:48:49;8.40;75.60
63017;DHT22;50274;45.640;11.756;2023-04-01T05:51:19;8.40;75.60
63017;DHT22;50274;45.640;11.756;2023-04-01T05:53:47;8.50;75.70
63017;DHT22;50274;45.640;11.756;2023-04-01T05:56:23;8.50;75.80
63017;DHT22;50274;45.640;11.756;2023-04-01T05:58:52;8.60;75.80
63017;DHT22;50274;45.640;11.756;2023-04-01T06:01:19;8.70;75.90
63017;DHT22;50274;45.640;11.756;2023-04-01T06:03:49;8.80;76.00
63017;DHT22;50274;45.640;11.756;2023-04-01T06:06:30;8.80;76.30
63017;DHT22;50274;45.640;11.756;2023-04-01T06:09:12;8.90;76.30
63017;DHT22;50274;45.640;11.756;2023-04-01T06:14:28;9.00;76.50
63017;DHT22;50274;45.640;11.756;2023-04-01T06:20:11;9.10;77.10
63017;DHT22;50274;45.640;11.756;2023-04-01T06:25:43;9.10;77.20
63017;DHT22;50274;45.640;11.756;2023-04-01T06:36:36;9.20;77.10
63017;DHT22;50274;45.640;11.756;2023-04-01T06:45:47;9.40;77.10
63017;DHT22;50274;45.640;11.756;2023-04-01T06:48:19;9.60;77.10
63017;DHT22;50274;45.640;11.756;2023-04-01T06:56:21;9.90;77.00
63017;DHT22;50274;45.640;11.756;2023-04-01T06:59:03;10.10;76.90
63017;DHT22;50274;45.640;11.756;2023-04-01T07:01:36;10.20;76.80
63017;DHT22;50274;45.640;11.756;2023-04-01T07:04:13;10.30;76.70
63017;DHT22;50274;45.640;11.756;2023-04-01T07:06:50;10.40;76.60
63017;DHT22;50274;45.640;11.756;2023-04-01T07:09:41;10.60;76.60
63017;DHT22;50274;45.640;11.756;2023-04-01T07:15:04;10.90;76.40
63017;DHT22;50274;45.640;11.756;2023-04-01T07:17:36;11.00;76.30
63017;DHT22;50274;45.640;11.756;2023-04-01T07:20:29;11.10;76.20
63017;DHT22;50274;45.640;11.756;2023-04-01T07:23:03;11.20;76.20
63017;DHT22;50274;45.640;11.756;2023-04-01T07:25:41;11.30;76.10
63017;DHT22;50274;45.640;11.756;2023-04-01T07:28:13;11.40;76.10
63017;DHT22;50274;45.640;11.756;2023-04-01T07:31:13;11.50;76.10
63017;DHT22;50274;45.640;11.756;2023-04-01T07:34:12;11.60;76.10
63017;DHT22;50274;45.640;11.756;2023-04-01T07:37:00;11.70;76.10
63017;DHT22;50274;45.640;11.756;2023-04-01T07:42:49;12.00;75.80
63017;DHT22;50274;45.640;11.756;2023-04-01T07:50:57;12.40;75.40
63017;DHT22;50274;45.640;11.756;2023-04-01T07:56:13;12.70;74.90
63017;DHT22;50274;45.640;11.756;2023-04-01T08:02:04;12.90;74.30
63017;DHT22;50274;45.640;11.756;2023-04-01T08:07:18;13.10;73.30
63017;DHT22;50274;45.640;11.756;2023-04-01T08:16:12;13.50;72.50
63017;DHT22;50274;45.640;11.756;2023-04-01T08:21:05;13.80;71.90
63017;DHT22;50274;45.640;11.756;2023-04-01T08:23:41;13.90;71.20
63017;DHT22;50274;45.640;11.756;2023-04-01T08:31:36;14.00;70.80
63017;DHT22;50274;45.640;11.756;2023-04-01T08:34:14;14.10;70.40
63017;DHT22;50274;45.640;11.756;2023-04-01T08:36:50;14.20;69.90
63017;DHT22;50274;45.640;11.756;2023-04-01T08:39:37;14.40;69.30
63017;DHT22;50274;45.640;11.756;2023-04-01T08:42:27;14.60;68.60
63017;DHT22;50274;45.640;11.756;2023-04-01T08:50:56;15.00;66.60
63017;DHT22;50274;45.640;11.756;2023-04-01T08:56:28;15.30;66.10
63017;DHT22;50274;45.640;11.756;2023-04-01T09:15:47;16.10;63.50
63017;DHT22;50274;45.640;11.756;2023-04-01T09:18:22;16.30;63.10
63017;DHT22;50274;45.640;11.756;2023-04-01T09:23:59;16.60;61.40
63017;DHT22;50274;45.640;11.756;2023-04-01T09:32:20;16.80;59.20
63017;DHT22;50274;45.640;11.756;2023-04-01T09:38:43;16.90;59.00
63017;DHT22;50274;45.640;11.756;2023-04-01T09:41:29;16.90;57.00
63017;DHT22;50274;45.640;11.756;2023-04-01T09:44:06;16.90;56.20
63017;DHT22;50274;45.640;11.756;2023-04-01T09:52:29;17.40;56.30
63017;DHT22;50274;45.640;11.756;2023-04-01T09:55:31;17.60;56.50
63017;DHT22;50274;45.640;11.756;2023-04-01T10:01:26;17.70;54.30
63017;DHT22;50274;45.640;11.756;2023-04-01T10:10:03;18.10;53.60
63017;DHT22;50274;45.640;11.756;2023-04-01T10:32:34;19.30;52.80
63017;DHT22;50274;45.640;11.756;2023-04-01T10:37:42;19.60;51.80
63017;DHT22;50274;45.640;11.756;2023-04-01T10:49:14;20.00;50.80
63017;DHT22;50274;45.640;11.756;2023-04-01T10:52:29;20.00;50.70
63017;DHT22;50274;45.640;11.756;2023-04-01T11:17:41;21.40;49.70
63017;DHT22;50274;45.640;11.756;2023-04-01T11:43:11;21.50;48.10
63017;DHT22;50274;45.640;11.756;2023-04-01T11:45:44;21.60;48.00
63017;DHT22;50274;45.640;11.756;2023-04-01T11:48:39;21.70;47.50
63017;DHT22;50274;45.640;11.756;2023-04-01T11:57:13;22.10;47.30
63017;DHT22;50274;45.640;11.756;2023-04-01T12:02:48;22.60;46.50
63017;DHT22;50274;45.640;11.756;2023-04-01T12:16:25;22.50;45.30
63017;DHT22;50274;45.640;11.756;2023-04-01T12:19:09;22.50;44.50
63017;DHT22;50274;45.640;11.756;2023-04-01T12:21:45;22.50;45.50
63017;DHT22;50274;45.640;11.756;2023-04-01T12:27:22;22.80;44.60
63017;DHT22;50274;45.640;11.756;2023-04-01T12:30:04;23.00;43.70
63017;DHT22;50274;45.640;11.756;2023-04-01T12:41:17;22.70;43.80
63017;DHT22;50274;45.640;11.756;2023-04-01T12:49:12;22.40;45.30
63017;DHT22;50274;45.640;11.756;2023-04-01T12:54:52;22.70;45.20
63017;DHT22;50274;45.640;11.756;2023-04-01T12:57:33;22.90;44.50
63017;DHT22;50274;45.640;11.756;2023-04-01T13:00:23;23.10;44.30
63017;DHT22;50274;45.640;11.756;2023-04-01T13:03:19;23.30;44.30
63017;DHT22;50274;45.640;11.756;2023-04-01T13:09:10;23.90;43.60
63017;DHT22;50274;45.640;11.756;2023-04-01T13:14:43;24.30;43.00
63017;DHT22;50274;45.640;11.756;2023-04-01T13:20:33;24.00;42.00
63017;DHT22;50274;45.640;11.756;2023-04-01T13:26:03;23.70;42.90
63017;DHT22;50274;45.640;11.756;2023-04-01T13:28:41;23.70;42.40
63017;DHT22;50274;45.640;11.756;2023-04-01T13:37:24;23.50;41.50
63017;DHT22;50274;45.640;11.756;2023-04-01T13:42:59;23.50;42.30
63017;DHT22;50274;45.640;11.756;2023-04-01T13:51:55;23.70;42.10
63017;DHT22;50274;45.640;11.756;2023-04-01T13:54:20;23.80;41.00
63017;DHT22;50274;45.640;11.756;2023-04-01T13:59:40;24.00;41.10
63017;DHT22;50274;45.640;11.756;2023-04-01T14:11:09;24.00;40.60
63017;DHT22;50274;45.640;11.756;2023-04-01T14:27:20;24.10;41.40
63017;DHT22;50274;45.640;11.756;2023-04-01T14:32:56;23.80;40.10
63017;DHT22;50274;45.640;11.756;2023-04-01T14:41:00;23.50;40.10
63017;DHT22;50274;45.640;11.756;2023-04-01T14:43:47;23.50;39.90
63017;DHT22;50274;45.640;11.756;2023-04-01T14:46:26;23.40;40.20
63017;DHT22;50274;45.640;11.756;2023-04-01T14:49:20;23.20;39.40
63017;DHT22;50274;45.640;11.756;2023-04-01T14:51:51;23.20;40.20
63017;DHT22;50274;45.640;11.756;2023-04-01T14:54:21;23.10;39.60
63017;DHT22;50274;45.640;11.756;2023-04-01T14:59:48;23.10;39.70
63017;DHT22;50274;45.640;11.756;2023-04-01T15:18:18;22.40;40.40
63017;DHT22;50274;45.640;11.756;2023-04-01T15:35:27;21.80;41.60
63017;DHT22;50274;45.640;11.756;2023-04-01T15:48:52;21.40;41.80
63017;DHT22;50274;45.640;11.756;2023-04-01T15:51:45;21.30;42.00
63017;DHT22;50274;45.640;11.756;2023-04-01T16:02:47;20.60;42.40
63017;DHT22;50274;45.640;11.756;2023-04-01T16:14:07;20.10;44.00
63017;DHT22;50274;45.640;11.756;2023-04-01T16:16:55;20.00;44.20
63017;DHT22;50274;45.640;11.756;2023-04-01T16:19:36;20.00;44.60
63017;DHT22;50274;45.640;11.756;2023-04-01T16:22:21;19.80;45.00
63017;DHT22;50274;45.640;11.756;2023-04-01T16:28:25;19.70;45.40
63017;DHT22;50274;45.640;11.756;2023-04-01T16:30:43;19.60;45.40
63017;DHT22;50274;45.640;11.756;2023-04-01T16:33:21;19.60;45.70
63017;DHT22;50274;45.640;11.756;2023-04-01T16:35:59;19.50;46.00
63017;DHT22;50274;45.640;11.756;2023-04-01T16:38:32;19.50;46.30
63017;DHT22;50274;45.640;11.756;2023-04-01T16:43:56;19.40;46.60
63017;DHT22;50274;45.640;11.756;2023-04-01T16:46:38;19.40;46.60
63017;DHT22;50274;45.640;11.756;2023-04-01T16:51:52;19.30;46.50
63017;DHT22;50274;45.640;11.756;2023-04-01T16:54:45;19.30;46.50
63017;DHT22;50274;45.640;11.756;2023-04-01T16:57:17;19.20;47.50
63017;DHT22;50274;45.640;11.756;2023-04-01T17:00:28;19.20;49.60
63017;DHT22;50274;45.640;11.756;2023-04-01T17:02:57;19.10;51.50
63017;DHT22;50274;45.640;11.756;2023-04-01T17:09:07;18.90;53.60
63017;DHT22;50274;45.640;11.756;2023-04-01T17:11:51;18.80;54.10
63017;DHT22;50274;45.640;11.756;2023-04-01T17:14:30;18.80;54.60
63017;DHT22;50274;45.640;11.756;2023-04-01T17:17:26;18.70;54.70
63017;DHT22;50274;45.640;11.756;2023-04-01T17:23:05;18.50;54.90
63017;DHT22;50274;45.640;11.756;2023-04-01T17:26:32;18.50;55.10
63017;DHT22;50274;45.640;11.756;2023-04-01T17:36:55;18.30;56.30
63017;DHT22;50274;45.640;11.756;2023-04-01T17:39:48;18.20;56.90
63017;DHT22;50274;45.640;11.756;2023-04-01T17:45:09;18.10;57.10
63017;DHT22;50274;45.640;11.756;2023-04-01T17:47:52;18.00;57.40
63017;DHT22;50274;45.640;11.756;2023-04-01T17:51:01;18.00;58.30
63017;DHT22;50274;45.640;11.756;2023-04-01T18:13:34;17.30;61.20
63017;DHT22;50274;45.640;11.756;2023-04-01T18:19:03;17.10;61.90
63017;DHT22;50274;45.640;11.756;2023-04-01T18:21:46;17.10;62.30
63017;DHT22;50274;45.640;11.756;2023-04-01T18:32:44;16.70;62.60
63017;DHT22;50274;45.640;11.756;2023-04-01T18:38:13;16.60;63.40
63017;DHT22;50274;45.640;11.756;2023-04-01T18:43:32;16.50;64.20
63017;DHT22;50274;45.640;11.756;2023-04-01T18:46:24;16.40;64.60
63017;DHT22;50274;45.640;11.756;2023-04-01T18:52:19;16.10;65.20
63017;DHT22;50274;45.640;11.756;2023-04-01T18:57:54;15.80;65.60
63017;DHT22;50274;45.640;11.756;2023-04-01T19:00:36;15.70;65.90
63017;DHT22;50274;45.640;11.756;2023-04-01T19:04:16;15.70;66.20
63017;DHT22;50274;45.640;11.756;2023-04-01T19:12:40;15.40;66.50
63017;DHT22;50274;45.640;11.756;2023-04-01T19:15:37;15.40;66.50
63017;DHT22;50274;45.640;11.756;2023-04-01T19:27:03;15.30;66.60
63017;DHT22;50274;45.640;11.756;2023-04-01T19:32:47;15.30;66.50
63017;DHT22;50274;45.640;11.756;2023-04-01T19:35:42;15.30;66.70
63017;DHT22;50274;45.640;11.756;2023-04-01T19:38:39;15.20;66.60
63017;DHT22;50274;45.640;11.756;2023-04-01T19:50:43;15.10;67.00
63017;DHT22;50274;45.640;11.756;2023-04-01T20:01:49;15.00;67.40
63017;DHT22;50274;45.640;11.756;2023-04-01T20:04:26;15.00;67.30
63017;DHT22;50274;45.640;11.756;2023-04-01T20:06:57;15.00;67.40
63017;DHT22;50274;45.640;11.756;2023-04-01T20:12:32;15.00;67.30
63017;DHT22;50274;45.640;11.756;2023-04-01T20:15:04;15.00;67.40
63017;DHT22;50274;45.640;11.756;2023-04-01T20:17:52;15.00;67.40
63017;DHT22;50274;45.640;11.756;2023-04-01T20:20:21;14.90;67.30
63017;DHT22;50274;45.640;11.756;2023-04-01T20:26:24;14.90;67.50
63017;DHT22;50274;45.640;11.756;2023-04-01T20:31:42;14.90;67.50
63017;DHT22;50274;45.640;11.756;2023-04-01T20:34:29;14.90;67.50
63017;DHT22;50274;45.640;11.756;2023-04-01T20:37:17;14.80;67.40
63017;DHT22;50274;45.640;11.756;2023-04-01T20:57:25;14.70;67.80
63017;DHT22;50274;45.640;11.756;2023-04-01T21:00:24;14.70;67.80
63017;DHT22;50274;45.640;11.756;2023-04-01T21:06:27;14.60;68.40
63017;DHT22;50274;45.640;11.756;2023-04-01T21:12:02;14.60;68.80
63017;DHT22;50274;45.640;11.756;2023-04-01T21:17:38;14.50;68.90
63017;DHT22;50274;45.640;11.756;2023-04-01T21:25:32;14.50;69.20
63017;DHT22;50274;45.640;11.756;2023-04-01T21:34:02;14.40;69.30
63017;DHT22;50274;45.640;11.756;2023-04-01T21:42:22;14.50;69.20
63017;DHT22;50274;45.640;11.756;2023-04-01T21:45:04;14.50;69.30
63017;DHT22;50274;45.640;11.756;2023-04-01T21:48:09;14.50;69.50
63017;DHT22;50274;45.640;11.756;2023-04-01T21:53:50;14.50;69.70
63017;DHT22;50274;45.640;11.756;2023-04-01T22:06:08;14.50;69.80
63017;DHT22;50274;45.640;11.756;2023-04-01T22:16:57;14.60;70.00
63017;DHT22;50274;45.640;11.756;2023-04-01T22:19:59;14.60;70.00
63017;DHT22;50274;45.640;11.756;2023-04-01T22:22:59;14.60;70.00
63017;DHT22;50274;45.640;11.756;2023-04-01T22:31:05;14.50;70.00
63017;DHT22;50274;45.640;11.756;2023-04-01T22:33:56;14.40;70.00
63017;DHT22;50274;45.640;11.756;2023-04-01T22:55:38;14.30;70.60
63017;DHT22;50274;45.640;11.756;2023-04-01T22:58:09;14.20;70.70
63017;DHT22;50274;45.640;11.756;2023-04-01T23:03:32;14.20;71.00
63017;DHT22;50274;45.640;11.756;2023-04-01T23:06:02;14.10;71.10
63017;DHT22;50274;45.640;11.756;2023-04-01T23:11:23;14.10;71.20
63017;DHT22;50274;45.640;11.756;2023-04-01T23:19:44;14.20;71.30
63017;DHT22;50274;45.640;11.756;2023-04-01T23:22:43;14.20;71.30
63017;DHT22;50274;45.640;11.756;2023-04-01T23:35:53;14.20;71.50
63017;DHT22;50274;45.640;11.756;2023-04-01T23:38:21;14.20;71.40
63017;DHT22;50274;45.640;11.756;2023-04-01T23:40:49;14.30;71.40
63017;DHT22;50274;45.640;11.756;2023-04-01T23:43:27;14.20;71.40
63017;DHT22;50274;45.640;11.756;2023-04-01T23:45:56;14.20;71.50
63017;DHT22;50274;45.640;11.756;2023-04-01T23:48:35;14.20;71.50
63017;DHT22;50274;45.640;11.756;2023-04-01T23:51:02;14.20;71.50
63017;DHT22;50274;45.640;11.756;2023-04-01T23:53:34;14.20;71.60
63017;DHT22;50274;45.640;11.756;2023-04-01T23:56:02;14.10;71.70
63017;DHT22;50274;45.640;11.756;2023-04-01T23:58:42;14.10;71.80
